Time;durP1;ratioP1;P1;durP2;ratioP2;P2;SDS_P1;SDS_P2;PMS_P1;PMS_P2;Temp;Humidity;BMP_temperature;BMP_pressure;BME280_temperature;BME280_humidity;BME280_pressure;Samples;Min_cycle;Max_cycle;Signal;HPM_P1;HPM_P2
2023/08/15 00:01:11;;;;;;;6.93;6.23;;;20.90;65.80;;;;;;4937330;29;20217;-70
2023/08/15 00:03:37;;;;;;;6.40;5.80;;;20.80;66.80;;;;;;4936935;29;20463;-70
2023/08/15 00:06:03;;;;;;;6.47;4.93;;;20.80;67.20;;;;;;4937141;29;20203;-71
2023/08/15 00:08:28;;;;;;;6.43;5.57;;;20.80;67.70;;;;;;4951896;28;20733;-70
2023/08/15 00:10:54;;;;;;;7.63;5.60;;;20.80;67.30;;;;;;4937147;29;20186;-70
2023/08/15 00:13:19;;;;;;;6.67;5.97;;;20.90;67.00;;;;;;4951303;29;20186;-71
2023/08/15 00:15:45;;;;;;;6.80;6.10;;;20.80;66.50;;;;;;4937213;29;20205;-70
2023/08/15 00:18:10;;;;;;;7.00;6.30;;;20.80;67.10;;;;;;4937186;29;20197;-71
2023/08/15 00:20:36;;;;;;;6.77;5.40;;;20.80;67.70;;;;;;4937040;29;20186;-70
2023/08/15 00:23:02;;;;;;;7.10;6.20;;;20.70;67.70;;;;;;4951311;29;20193;-71
2023/08/15 00:25:27;;;;;;;6.53;5.03;;;20.70;67.90;;;;;;4936752;29;20214;-70
2023/08/15 00:27:53;;;;;;;6.43;5.80;;;20.70;68.80;;;;;;4936761;29;20419;-70
2023/08/15 00:30:19;;;;;;;8.43;6.33;;;20.70;68.70;;;;;;4936965;29;20186;-71
2023/08/15 00:32:46;;;;;;;5.93;5.40;;;20.70;69.00;;;;;;4936542;29;20660;-71
2023/08/15 00:35:11;;;;;;;7.70;6.20;;;20.70;69.20;;;;;;4936764;29;20229;-70
2023/08/15 00:37:37;;;;;;;6.10;5.43;;;20.80;69.10;;;;;;4936529;29;20445;-71
2023/08/15 00:40:04;;;;;;;7.77;6.97;;;20.80;68.30;;;;;;4936786;29;20649;-71
2023/08/15 00:42:30;;;;;;;6.43;5.83;;;20.80;69.30;;;;;;4951111;29;20193;-70
2023/08/15 00:44:56;;;;;;;5.63;5.13;;;20.80;68.70;;;;;;4936719;29;21120;-71
2023/08/15 00:47:22;;;;;;;7.20;6.57;;;20.80;68.10;;;;;;4936382;29;20461;-71
2023/08/15 00:49:48;;;;;;;6.50;6.00;;;20.80;67.80;;;;;;4936498;29;20967;-71
2023/08/15 00:52:16;;;;;;;7.07;5.80;;;20.80;67.70;;;;;;4936195;29;20453;-71
2023/08/15 00:54:46;;;;;;;7.60;6.90;;;20.80;68.90;;;;;;4936204;29;20434;-71
2023/08/15 00:57:11;;;;;;;7.37;5.27;;;20.80;68.40;;;;;;4936494;29;20505;-71
2023/08/15 00:59:37;;;;;;;7.10;6.40;;;20.80;67.40;;;;;;4936343;29;20497;-70
2023/08/15 01:02:04;;;;;;;7.33;5.90;;;20.80;68.00;;;;;;4936016;29;20175;-71
2023/08/15 01:04:31;;;;;;;5.73;5.23;;;20.80;68.20;;;;;;4935961;29;20501;-71
2023/08/15 01:06:57;;;;;;;6.67;5.97;;;20.80;67.90;;;;;;4936557;29;20477;-71
2023/08/15 01:09:23;;;;;;;6.50;5.90;;;20.80;68.30;;;;;;4936056;29;20558;-71
2023/08/15 01:12:09;;;;;;;8.63;6.40;;;20.70;68.30;;;;;;4935797;29;20513;-71
2023/08/15 01:14:44;;;;;;;8.53;6.40;;;20.60;69.60;;;;;;4937375;28;20350;-71
2023/08/15 01:17:15;;;;;;;6.43;5.83;;;20.60;69.50;;;;;;4935902;29;20804;-71
2023/08/15 01:19:45;;;;;;;7.83;6.90;;;20.60;69.70;;;;;;4935799;29;20413;-71
2023/08/15 01:22:16;;;;;;;8.87;8.00;;;20.50;70.10;;;;;;4935705;29;20425;-71
2023/08/15 01:24:43;;;;;;;11.93;8.90;;;20.60;70.30;;;;;;4935691;29;20442;-71
2023/08/15 01:27:09;;;;;;;8.67;6.97;;;20.50;71.20;;;;;;4934886;29;20488;-71
2023/08/15 01:29:35;;;;;;;8.83;7.93;;;20.50;71.00;;;;;;4935778;29;20422;-71
2023/08/15 01:32:19;;;;;;;8.20;7.50;;;20.50;71.20;;;;;;4935927;29;20187;-71
2023/08/15 01:34:58;;;;;;;8.13;7.30;;;20.50;70.20;;;;;;4935643;29;20653;-71
2023/08/15 01:37:29;;;;;;;9.47;7.40;;;20.50;70.10;;;;;;4935639;29;20414;-71
2023/08/15 01:39:57;;;;;;;9.10;6.93;;;20.50;71.20;;;;;;4935282;29;20414;-71
2023/08/15 01:42:25;;;;;;;6.57;5.97;;;20.40;71.00;;;;;;4935161;29;20418;-71
2023/08/15 01:44:53;;;;;;;6.93;6.20;;;20.40;71.10;;;;;;4949893;29;20489;-71
2023/08/15 01:47:20;;;;;;;6.90;6.20;;;20.40;71.00;;;;;;4935579;29;20497;-71
2023/08/15 01:49:46;;;;;;;9.47;6.50;;;20.40;71.10;;;;;;4935517;29;20420;-71
2023/08/15 01:52:11;;;;;;;6.43;5.83;;;20.40;69.80;;;;;;4935105;29;20505;-71
2023/08/15 01:54:37;;;;;;;5.97;5.33;;;20.50;69.00;;;;;;4935146;29;20199;-71
2023/08/15 01:57:02;;;;;;;7.77;5.33;;;20.40;69.00;;;;;;4935114;29;20190;-71
2023/08/15 01:59:28;;;;;;;7.57;6.37;;;20.40;68.50;;;;;;4935096;29;20198;-70
2023/08/15 02:01:53;;;;;;;6.20;5.60;;;20.40;69.20;;;;;;4935018;29;20202;-70
2023/08/15 02:04:19;;;;;;;7.70;6.33;;;20.40;70.90;;;;;;4935211;29;20210;-71
2023/08/15 02:06:45;;;;;;;8.53;5.73;;;20.30;71.00;;;;;;4935106;29;20620;-70
2023/08/15 02:09:10;;;;;;;8.93;5.27;;;20.20;69.70;;;;;;4935108;29;20261;-70
2023/08/15 02:11:36;;;;;;;7.03;6.37;;;20.10;71.00;;;;;;4934480;29;20174;-70
2023/08/15 02:14:01;;;;;;;6.37;5.50;;;20.10;71.60;;;;;;4934752;29;20203;-70
2023/08/15 02:16:27;;;;;;;6.97;5.57;;;20.10;71.50;;;;;;4934864;29;20547;-70
2023/08/15 02:18:52;;;;;;;8.53;7.00;;;20.10;72.90;;;;;;4934979;29;20187;-71
2023/08/15 02:21:18;;;;;;;8.83;6.80;;;20.10;71.90;;;;;;4934978;29;20218;-70
2023/08/15 02:23:43;;;;;;;13.30;7.03;;;20.10;71.40;;;;;;4949143;28;20194;-71
2023/08/15 02:26:09;;;;;;;7.17;6.17;;;20.10;71.80;;;;;;4934570;29;20603;-70
2023/08/15 02:28:34;;;;;;;10.80;5.70;;;20.10;73.00;;;;;;4934759;29;20179;-70
2023/08/15 02:31:04;;;;;;;7.53;6.47;;;20.00;72.40;;;;;;4934782;29;20175;-70
2023/08/15 02:33:30;;;;;;;7.33;6.63;;;20.00;72.80;;;;;;4934463;29;20178;-71
2023/08/15 02:35:55;;;;;;;7.13;6.30;;;20.00;72.90;;;;;;4934859;29;20422;-70
2023/08/15 02:38:21;;;;;;;7.60;6.07;;;20.00;72.60;;;;;;4934757;29;20213;-71
2023/08/15 02:40:48;;;;;;;7.67;6.93;;;20.00;73.00;;;;;;4934728;29;20218;-70
2023/08/15 02:43:13;;;;;;;8.20;5.70;;;20.00;73.50;;;;;;4934341;29;20547;-70
2023/08/15 02:45:39;;;;;;;7.50;6.03;;;20.00;73.30;;;;;;4934572;29;20533;-70
2023/08/15 02:48:05;;;;;;;8.43;5.47;;;20.00;73.80;;;;;;4934635;29;20266;-70
2023/08/15 02:50:30;;;;;;;8.03;6.10;;;19.90;74.30;;;;;;4934673;29;20258;-70
2023/08/15 02:52:56;;;;;;;7.27;5.80;;;19.90;74.60;;;;;;4934268;29;20199;-70
2023/08/15 02:55:21;;;;;;;6.70;5.17;;;19.90;73.60;;;;;;4949216;28;20198;-70
2023/08/15 02:57:47;;;;;;;8.27;6.27;;;19.80;75.30;;;;;;4934482;29;20178;-71
2023/08/15 03:00:13;;;;;;;8.00;7.00;;;19.80;74.40;;;;;;4949216;29;20206;-70
2023/08/15 03:02:40;;;;;;;9.93;6.17;;;19.80;74.60;;;;;;4934313;29;20649;-70
2023/08/15 03:05:06;;;;;;;7.07;6.20;;;19.80;74.20;;;;;;4934299;29;20822;-70
2023/08/15 03:07:31;;;;;;;7.83;7.13;;;19.70;74.90;;;;;;4934245;29;20462;-70
2023/08/15 03:09:57;;;;;;;5.93;5.33;;;19.70;74.90;;;;;;4934528;29;20179;-70
2023/08/15 03:12:22;;;;;;;8.33;7.43;;;19.70;74.60;;;;;;4934306;29;20175;-70
2023/08/15 03:14:48;;;;;;;6.90;6.20;;;19.60;75.40;;;;;;4934265;29;20198;-70
2023/08/15 03:17:14;;;;;;;8.87;7.50;;;19.60;75.30;;;;;;4934458;29;20179;-71
2023/08/15 03:19:39;;;;;;;7.70;6.10;;;19.60;75.40;;;;;;4949062;29;20190;-71
2023/08/15 03:22:08;;;;;;;7.37;6.60;;;19.60;75.60;;;;;;4934096;29;20190;-70
2023/08/15 03:24:33;;;;;;;11.37;7.23;;;19.50;75.40;;;;;;4933933;29;20611;-71
2023/08/15 03:26:59;;;;;;;9.03;6.83;;;19.50;75.80;;;;;;4934218;29;20478;-71
2023/08/15 03:29:24;;;;;;;6.70;5.97;;;19.40;76.10;;;;;;4934350;29;20186;-71
2023/08/15 03:31:55;;;;;;;9.80;7.90;;;19.40;76.50;;;;;;4934026;29;20660;-71
2023/08/15 03:34:21;;;;;;;8.17;7.10;;;19.40;76.60;;;;;;4948827;29;20211;-70
2023/08/15 03:36:47;;;;;;;9.43;7.40;;;19.40;76.40;;;;;;4934251;29;20450;-71
2023/08/15 03:39:12;;;;;;;8.37;6.50;;;19.50;76.00;;;;;;4934136;29;20720;-71
2023/08/15 03:41:38;;;;;;;7.00;4.60;;;19.40;76.40;;;;;;4933904;29;20183;-71
2023/08/15 03:44:04;;;;;;;11.93;7.43;;;19.50;75.70;;;;;;4934151;29;20250;-70
2023/08/15 03:46:29;;;;;;;12.00;7.77;;;19.40;76.10;;;;;;4934080;29;20727;-71
2023/08/15 03:48:55;;;;;;;9.07;6.57;;;19.40;76.10;;;;;;4934744;29;20194;-71
2023/08/15 03:51:20;;;;;;;8.00;7.30;;;19.40;76.00;;;;;;4953549;29;20182;-70
2023/08/15 03:53:46;;;;;;;8.10;6.87;;;19.50;76.20;;;;;;4956549;28;20198;-70
2023/08/15 03:56:11;;;;;;;10.07;8.20;;;19.50;74.60;;;;;;4957004;28;20178;-70
2023/08/15 03:58:37;;;;;;;7.07;6.00;;;19.50;75.10;;;;;;4957059;28;20735;-70
2023/08/15 04:01:02;;;;;;;11.27;6.50;;;19.50;74.70;;;;;;4956830;28;20648;-71
2023/08/15 04:03:28;;;;;;;7.80;6.90;;;19.50;73.90;;;;;;4942966;28;20198;-71
2023/08/15 04:05:53;;;;;;;8.57;6.20;;;19.50;73.70;;;;;;4937459;29;20198;-70
2023/08/15 04:08:19;;;;;;;7.50;6.00;;;19.50;73.60;;;;;;4937888;29;20183;-71
2023/08/15 04:10:46;;;;;;;8.57;7.77;;;19.50;73.60;;;;;;4937546;29;20270;-69
2023/08/15 04:13:12;;;;;;;7.20;6.50;;;19.40;74.20;;;;;;4937548;29;20559;-69
2023/08/15 04:15:38;;;;;;;6.43;5.83;;;19.40;74.30;;;;;;4938045;29;20438;-73
2023/08/15 04:18:08;;;;;;;8.03;6.40;;;19.30;74.50;;;;;;4938263;29;20431;-71
2023/08/15 04:20:38;;;;;;;9.53;6.17;;;19.20;74.90;;;;;;4938857;29;20605;-70
2023/08/15 04:23:05;;;;;;;8.67;7.87;;;19.20;75.10;;;;;;4938243;29;20410;-71
2023/08/15 04:25:32;;;;;;;8.60;7.23;;;19.30;76.10;;;;;;4937910;29;20863;-70
2023/08/15 04:27:57;;;;;;;7.70;6.50;;;19.30;76.50;;;;;;4937684;29;20921;-71
2023/08/15 04:30:23;;;;;;;9.20;7.30;;;19.30;75.70;;;;;;4938021;29;20406;-70
2023/08/15 04:32:49;;;;;;;11.20;6.70;;;19.30;75.40;;;;;;4937029;29;20190;-72
2023/08/15 04:35:15;;;;;;;6.77;6.07;;;19.30;75.10;;;;;;4937525;29;20274;-71
2023/08/15 04:37:40;;;;;;;6.17;5.57;;;19.30;76.30;;;;;;4937136;29;20186;-71
2023/08/15 04:40:14;;;;;;;8.33;6.50;;;19.30;75.40;;;;;;4937484;29;20191;-72
2023/08/15 04:42:42;;;;;;;12.50;6.20;;;19.30;75.10;;;;;;4936798;29;20493;-68
2023/08/15 04:45:08;;;;;;;8.13;6.23;;;19.30;76.40;;;;;;4936834;29;20447;-71
2023/08/15 04:47:35;;;;;;;7.40;6.30;;;19.40;76.30;;;;;;4936977;29;20469;-69
2023/08/15 04:50:00;;;;;;;7.80;6.47;;;19.40;76.00;;;;;;4937114;29;20434;-71
2023/08/15 04:52:26;;;;;;;5.10;4.60;;;19.50;76.90;;;;;;4938108;29;20455;-71
2023/08/15 04:54:51;;;;;;;5.40;4.90;;;19.70;76.30;;;;;;4937411;29;20253;-72
2023/08/15 04:57:17;;;;;;;7.50;6.70;;;19.90;75.70;;;;;;4937677;29;20209;-73
2023/08/15 04:59:42;;;;;;;7.97;5.90;;;20.10;71.30;;;;;;4936808;29;20210;-69
2023/08/15 05:02:08;;;;;;;5.83;5.17;;;20.30;71.00;;;;;;4939951;29;20526;-69
2023/08/15 05:04:34;;;;;;;7.50;6.60;;;20.40;70.60;;;;;;4942549;29;20198;-69
2023/08/15 05:07:00;;;;;;;10.23;6.70;;;20.60;68.60;;;;;;4940940;29;20350;-70
2023/08/15 05:09:28;;;;;;;7.00;6.07;;;20.70;64.90;;;;;;4940244;29;20225;-69
2023/08/15 05:11:54;;;;;;;7.63;6.83;;;20.80;60.80;;;;;;4936750;29;20412;-69
2023/08/15 05:14:19;;;;;;;6.13;5.53;;;20.90;60.40;;;;;;4936523;29;20506;-70
2023/08/15 05:16:45;;;;;;;6.17;5.60;;;20.80;59.20;;;;;;4951341;29;20183;-70
2023/08/15 05:19:10;;;;;;;6.70;5.00;;;20.80;60.50;;;;;;4936164;29;20577;-71
2023/08/15 05:21:36;;;;;;;6.63;5.83;;;20.80;59.50;;;;;;4936087;29;20191;-70
2023/08/15 05:24:02;;;;;;;5.97;5.37;;;20.90;58.00;;;;;;4936032;29;20296;-70
2023/08/15 05:26:27;;;;;;;6.33;5.70;;;20.90;58.00;;;;;;4936151;29;20199;-69
2023/08/15 05:28:53;;;;;;;6.47;5.00;;;21.00;58.30;;;;;;4936269;29;20183;-70
2023/08/15 05:31:19;;;;;;;6.63;6.03;;;21.10;58.30;;;;;;4936140;29;20617;-69
2023/08/15 05:33:45;;;;;;;7.93;6.23;;;21.30;56.00;;;;;;4935790;29;20213;-70
2023/08/15 05:36:11;;;;;;;4.93;4.43;;;21.40;54.80;;;;;;4929038;29;20443;-70
2023/08/15 05:38:36;;;;;;;6.60;5.90;;;21.50;54.20;;;;;;4936097;29;20539;-70
2023/08/15 05:41:02;;;;;;;7.63;5.70;;;21.60;51.60;;;;;;4934556;29;20229;-70
2023/08/15 05:43:28;;;;;;;5.33;4.83;;;21.70;51.70;;;;;;4918584;29;20187;-70
2023/08/15 05:45:53;;;;;;;7.10;4.93;;;21.80;51.80;;;;;;4935668;29;20175;-70
2023/08/15 05:48:19;;;;;;;6.30;5.47;;;22.00;49.10;;;;;;4950733;28;20187;-70
2023/08/15 05:50:44;;;;;;;6.13;5.50;;;22.50;48.00;;;;;;4935622;29;20267;-70
2023/08/15 05:53:10;;;;;;;4.80;4.30;;;23.50;44.50;;;;;;4934697;29;20171;-70
2023/08/15 05:55:35;;;;;;;5.10;4.20;;;25.00;32.80;;;;;;4916945;29;20202;-70
2023/08/15 05:58:01;;;;;;;4.87;4.40;;;26.90;25.60;;;;;;4915525;29;20183;-71
2023/08/15 06:00:26;;;;;;;4.40;3.70;;;28.20;18.40;;;;;;4935536;29;20210;-71
2023/08/15 06:02:52;;;;;;;5.20;4.50;;;28.50;16.90;;;;;;4935155;29;20724;-71
2023/08/15 06:05:18;;;;;;;4.70;3.73;;;28.80;13.50;;;;;;4950139;29;20206;-70
2023/08/15 06:07:43;;;;;;;7.53;5.10;;;29.00;12.70;;;;;;4935489;29;20217;-71
2023/08/15 06:10:09;;;;;;;5.70;4.57;;;28.20;12.40;;;;;;4950110;29;20221;-71
2023/08/15 06:12:34;;;;;;;6.00;3.73;;;28.30;12.70;;;;;;4935100;29;20186;-72
2023/08/15 06:15:00;;;;;;;5.83;4.30;;;27.90;13.90;;;;;;4935533;29;20653;-69
2023/08/15 06:17:26;;;;;;;6.50;4.00;;;28.10;12.90;;;;;;4935368;29;20185;-69
2023/08/15 06:19:53;;;;;;;7.60;3.63;;;28.40;11.90;;;;;;4935239;29;20231;-69
2023/08/15 06:22:19;;;;;;;7.50;4.80;;;29.10;10.90;;;;;;4935040;29;20194;-69
2023/08/15 06:24:44;;;;;;;5.80;4.90;;;29.80;8.90;;;;;;4935526;29;20454;-69
2023/08/15 06:27:11;;;;;;;5.70;5.07;;;29.80;8.20;;;;;;4950453;29;20229;-71
2023/08/15 06:29:37;;;;;;;6.73;6.03;;;29.10;8.50;;;;;;4935241;29;20685;-71
2023/08/15 06:32:02;;;;;;;9.20;6.37;;;28.80;10.10;;;;;;4917016;29;20447;-71
2023/08/15 06:34:28;;;;;;;8.20;6.70;;;28.90;10.90;;;;;;4927969;29;20481;-70
2023/08/15 06:36:54;;;;;;;5.70;5.20;;;29.60;8.80;;;;;;4951442;29;20231;-71
2023/08/15 06:39:20;;;;;;;6.27;5.67;;;30.10;7.40;;;;;;4950568;28;20264;-70
2023/08/15 06:41:45;;;;;;;8.80;6.67;;;30.10;7.40;;;;;;4941960;28;20456;-71
2023/08/15 06:44:11;;;;;;;9.20;5.10;;;30.40;6.60;;;;;;4919761;29;20603;-71
2023/08/15 06:46:37;;;;;;;5.33;4.77;;;30.40;5.70;;;;;;4912292;29;20563;-70
2023/08/15 06:49:02;;;;;;;7.17;6.47;;;30.20;6.40;;;;;;4931576;29;20234;-70
2023/08/15 06:51:28;;;;;;;6.93;6.10;;;30.00;6.50;;;;;;4931969;29;20187;-68
2023/08/15 06:53:54;;;;;;;11.63;6.10;;;29.80;7.00;;;;;;4926003;29;20781;-70
2023/08/15 06:56:20;;;;;;;6.97;5.90;;;29.10;8.30;;;;;;4917135;29;20234;-71
2023/08/15 06:58:46;;;;;;;7.13;5.53;;;28.90;9.80;;;;;;4935573;29;20438;-74
2023/08/15 07:01:12;;;;;;;8.23;5.40;;;28.80;10.40;;;;;;4949770;28;20457;-73
2023/08/15 07:03:38;;;;;;;6.10;4.73;;;28.60;10.00;;;;;;4934929;29;20243;-73
2023/08/15 07:06:05;;;;;;;5.10;4.60;;;28.30;10.50;;;;;;4934477;29;20206;-72
2023/08/15 07:08:31;;;;;;;5.90;5.30;;;27.80;15.60;;;;;;4935066;29;20183;-73
2023/08/15 07:10:59;;;;;;;6.67;5.97;;;27.80;16.50;;;;;;4934711;29;20782;-72
2023/08/15 07:13:25;;;;;;;5.57;5.07;;;28.60;13.30;;;;;;4933675;29;20584;-72
2023/08/15 07:15:57;;;;;;;7.03;5.90;;;29.90;11.90;;;;;;4934829;29;20555;-71
2023/08/15 07:18:23;;;;;;;6.87;5.03;;;31.70;7.70;;;;;;4935139;29;20174;-74
2023/08/15 07:20:53;;;;;;;9.00;5.47;;;32.90;4.50;;;;;;4949779;29;20948;-72
2023/08/15 07:23:20;;;;;;;6.60;5.90;;;32.80;3.70;;;;;;4947716;28;20545;-73
2023/08/15 07:25:46;;;;;;;5.63;4.67;;;31.30;5.30;;;;;;4937906;29;20590;-73
2023/08/15 07:28:12;;;;;;;5.73;5.10;;;30.10;9.00;;;;;;4938354;29;20554;-73
2023/08/15 07:30:38;;;;;;;5.30;4.80;;;29.20;9.90;;;;;;4952322;29;20513;-72
2023/08/15 07:33:04;;;;;;;6.10;5.60;;;28.50;12.50;;;;;;4937408;29;20506;-72
2023/08/15 07:35:29;;;;;;;9.63;5.93;;;27.70;14.80;;;;;;4935193;29;20573;-72
2023/08/15 07:37:55;;;;;;;8.90;5.70;;;27.60;16.50;;;;;;4937693;29;20414;-73
2023/08/15 07:40:21;;;;;;;5.80;4.47;;;28.60;15.40;;;;;;4938230;29;20193;-73
2023/08/15 07:42:53;;;;;;;5.23;4.73;;;29.40;13.10;;;;;;4937963;29;20193;-74
2023/08/15 07:45:22;;;;;;;6.63;4.83;;;29.40;12.00;;;;;;4938160;29;20521;-74
2023/08/15 07:47:51;;;;;;;6.13;5.53;;;29.90;10.40;;;;;;4938426;29;20470;-73
2023/08/15 07:50:18;;;;;;;6.53;4.07;;;29.80;10.60;;;;;;4938336;29;20411;-73
2023/08/15 07:52:44;;;;;;;6.33;5.30;;;29.40;11.20;;;;;;4937539;29;20929;-73
2023/08/15 07:55:10;;;;;;;6.30;5.70;;;29.10;11.10;;;;;;4938330;29;20481;-72
2023/08/15 07:57:36;;;;;;;5.70;5.17;;;28.50;13.60;;;;;;4938010;29;20178;-74
2023/08/15 08:00:03;;;;;;;6.00;5.40;;;28.30;14.40;;;;;;4938283;29;20963;-72
2023/08/15 08:02:29;;;;;;;6.60;4.50;;;27.80;15.70;;;;;;4937997;29;20214;-73
2023/08/15 08:04:54;;;;;;;5.17;4.40;;;27.70;16.40;;;;;;4937555;29;20536;-73
2023/08/15 08:07:20;;;;;;;6.20;4.50;;;27.50;16.80;;;;;;4937533;29;20214;-73
2023/08/15 08:09:46;;;;;;;5.73;5.13;;;27.40;17.70;;;;;;4937720;29;20526;-73
2023/08/15 08:12:11;;;;;;;4.87;4.23;;;27.40;17.30;;;;;;4937660;29;20261;-73
2023/08/15 08:14:37;;;;;;;9.00;4.93;;;28.00;17.10;;;;;;4937799;29;20194;-74
2023/08/15 08:17:07;;;;;;;6.33;5.73;;;29.20;13.20;;;;;;4937600;29;20583;-73
2023/08/15 08:19:32;;;;;;;6.80;6.07;;;29.90;10.90;;;;;;4937267;28;20183;-74
2023/08/15 08:21:58;;;;;;;6.80;4.93;;;29.70;9.70;;;;;;4937426;29;20799;-73
2023/08/15 08:24:24;;;;;;;6.63;5.37;;;29.70;10.10;;;;;;4937288;29;20642;-73
2023/08/15 08:26:49;;;;;;;6.30;5.70;;;30.60;10.30;;;;;;4937283;29;20254;-73
2023/08/15 08:29:15;;;;;;;6.33;5.73;;;32.60;6.50;;;;;;4937299;29;20183;-73
2023/08/15 08:31:41;;;;;;;6.63;5.97;;;33.40;2.90;;;;;;4937050;29;20182;-73
2023/08/15 08:34:13;;;;;;;6.53;5.97;;;32.80;3.30;;;;;;4937114;29;20199;-74
2023/08/15 08:36:42;;;;;;;6.77;5.50;;;32.30;4.20;;;;;;4937409;29;20446;-73
2023/08/15 08:39:09;;;;;;;6.20;5.60;;;32.40;4.10;;;;;;4937208;29;20411;-74
2023/08/15 08:41:38;;;;;;;6.90;6.20;;;32.40;4.00;;;;;;4937048;29;20792;-74
2023/08/15 08:44:04;;;;;;;12.23;5.97;;;32.90;3.90;;;;;;4937253;29;20816;-73
2023/08/15 08:46:30;;;;;;;8.80;6.80;;;34.90;2.10;;;;;;4937247;29;20458;-72
2023/08/15 08:48:57;;;;;;;6.10;5.60;;;36.60;1.00;;;;;;4951684;29;20430;-73
2023/08/15 08:51:24;;;;;;;6.77;6.27;;;38.50;1.00;;;;;;4936986;29;20410;-74
2023/08/15 08:53:50;;;;;;;6.63;6.10;;;40.70;1.00;;;;;;4936676;29;20435;-73
2023/08/15 08:56:17;;;;;;;7.07;6.57;;;41.80;1.00;;;;;;4937134;29;20884;-73
2023/08/15 08:58:48;;;;;;;7.60;7.10;;;42.50;1.00;;;;;;4936762;29;20310;-74
2023/08/15 09:01:14;;;;;;;8.83;8.20;;;41.90;1.00;;;;;;4937261;29;20414;-73
2023/08/15 09:03:40;;;;;;;7.50;6.77;;;40.10;1.00;;;;;;4936773;29;20481;-73
2023/08/15 09:06:07;;;;;;;8.80;7.43;;;37.20;1.00;;;;;;4936918;29;20526;-74
2023/08/15 09:08:32;;;;;;;7.40;6.80;;;34.60;1.00;;;;;;4936943;29;20185;-73
2023/08/15 09:10:58;;;;;;;7.37;6.77;;;33.40;1.00;;;;;;4936802;29;20422;-74
2023/08/15 09:13:24;;;;;;;11.83;7.00;;;32.80;1.00;;;;;;4936241;29;20218;-74
2023/08/15 09:15:51;;;;;;;7.23;6.57;;;31.80;1.00;;;;;;4951356;29;20206;-73
2023/08/15 09:18:23;;;;;;;5.57;5.10;;;31.30;1.00;;;;;;4951373;28;20187;-74
2023/08/15 09:20:49;;;;;;;5.63;5.13;;;31.00;1.10;;;;;;4936671;29;20785;-73
2023/08/15 09:23:16;;;;;;;5.73;5.23;;;30.50;2.10;;;;;;4936421;29;20423;-73
2023/08/15 09:25:41;;;;;;;6.67;5.17;;;30.10;2.10;;;;;;4936772;29;20245;-74
2023/08/15 09:28:07;;;;;;;5.73;5.23;;;30.00;1.60;;;;;;4936397;29;20553;-73
2023/08/15 09:30:33;;;;;;;5.70;4.57;;;30.00;1.30;;;;;;4935012;29;20217;-74
2023/08/15 09:33:01;;;;;;;5.00;4.50;;;30.00;1.00;;;;;;4935939;29;20426;-73
2023/08/15 09:35:30;;;;;;;6.20;5.60;;;30.20;1.00;;;;;;4936043;29;20218;-72
2023/08/15 09:37:55;;;;;;;5.17;4.87;;;30.50;1.00;;;;;;4936342;29;20429;-74
2023/08/15 09:40:24;;;;;;;13.77;5.40;;;30.90;1.00;;;;;;4951171;28;20435;-72
2023/08/15 09:42:50;;;;;;;5.23;4.93;;;31.20;1.00;;;;;;4935686;29;20194;-74
2023/08/15 09:45:16;;;;;;;6.20;5.70;;;31.40;1.00;;;;;;4936614;29;20534;-73
2023/08/15 09:47:44;;;;;;;6.60;6.00;;;31.10;1.00;;;;;;4935653;29;20552;-74
2023/08/15 09:50:12;;;;;;;5.47;5.03;;;30.90;1.00;;;;;;4937944;29;20909;-73
2023/08/15 09:52:42;;;;;;;5.83;5.33;;;31.30;1.00;;;;;;4936871;29;20422;-73
2023/08/15 09:55:12;;;;;;;5.70;5.30;;;31.20;1.00;;;;;;4935578;29;20441;-74
2023/08/15 09:57:39;;;;;;;6.20;5.20;;;31.20;1.00;;;;;;4935199;29;20530;-74
2023/08/15 10:00:08;;;;;;;5.20;4.90;;;31.60;1.00;;;;;;4935183;29;20517;-74
2023/08/15 10:02:42;;;;;;;5.30;4.90;;;31.70;1.00;;;;;;4934950;29;20506;-74
2023/08/15 10:05:11;;;;;;;5.63;5.20;;;31.60;1.00;;;;;;4935161;29;20437;-73
2023/08/15 10:07:37;;;;;;;6.63;5.40;;;31.90;1.00;;;;;;4935378;29;20560;-74
2023/08/15 10:10:04;;;;;;;4.63;4.37;;;32.10;1.00;;;;;;4933588;29;20469;-73
2023/08/15 10:12:32;;;;;;;5.60;5.10;;;32.20;1.00;;;;;;4934666;29;20481;-73
2023/08/15 10:14:58;;;;;;;5.47;5.17;;;32.10;1.00;;;;;;4934796;29;20449;-73
2023/08/15 10:17:29;;;;;;;6.20;5.60;;;32.20;1.00;;;;;;4935302;29;20474;-73
2023/08/15 10:20:00;;;;;;;5.50;5.07;;;32.40;1.00;;;;;;4934707;29;20430;-73
2023/08/15 10:22:25;;;;;;;5.50;5.10;;;32.30;1.00;;;;;;4934632;29;20477;-73
2023/08/15 10:24:51;;;;;;;6.47;5.73;;;32.40;1.00;;;;;;4934638;29;20487;-73
2023/08/15 10:27:20;;;;;;;5.80;5.40;;;32.40;1.00;;;;;;4934760;29;20203;-73
2023/08/15 10:30:03;;;;;;;5.53;5.03;;;32.10;1.00;;;;;;4934666;29;20175;-73
2023/08/15 10:32:33;;;;;;;5.13;4.80;;;31.90;1.00;;;;;;4934480;29;20430;-73
2023/08/15 10:34:59;;;;;;;6.00;5.60;;;32.00;1.00;;;;;;4934735;29;20455;-73
2023/08/15 10:37:33;;;;;;;6.53;5.73;;;31.30;1.00;;;;;;4935709;29;20953;-73
2023/08/15 10:40:12;;;;;;;4.57;4.20;;;31.50;1.00;;;;;;4935170;29;20426;-73
2023/08/15 10:43:10;;;;;;;5.43;5.03;;;31.80;1.00;;;;;;4934415;29;20430;-73
2023/08/15 10:45:41;;;;;;;5.77;5.07;;;32.20;1.00;;;;;;4934185;29;21070;-72
2023/08/15 10:48:09;;;;;;;6.37;5.97;;;32.10;1.00;;;;;;4934772;29;20837;-73
2023/08/15 10:50:36;;;;;;;5.80;5.23;;;32.00;1.00;;;;;;4934431;29;20426;-72
2023/08/15 10:53:04;;;;;;;5.30;4.93;;;32.00;1.00;;;;;;4934249;29;20904;-73
2023/08/15 10:55:34;;;;;;;5.10;4.70;;;31.90;1.00;;;;;;4949066;29;20498;-74
2023/08/15 10:58:09;;;;;;;6.27;5.37;;;32.00;1.00;;;;;;4935311;29;20446;-74
2023/08/15 11:00:36;;;;;;;5.70;5.30;;;32.30;1.00;;;;;;4938515;29;20437;-73
2023/08/15 11:03:02;;;;;;;5.77;5.27;;;32.30;1.00;;;;;;4938055;29;20426;-74
2023/08/15 11:05:28;;;;;;;6.60;4.97;;;32.70;1.00;;;;;;4938200;29;20458;-73
2023/08/15 11:08:14;;;;;;;5.30;5.00;;;32.70;1.00;;;;;;4938142;29;20976;-73
2023/08/15 11:10:50;;;;;;;5.10;4.70;;;32.40;1.00;;;;;;4938109;29;20418;-72
2023/08/15 11:13:16;;;;;;;5.70;5.27;;;32.30;1.00;;;;;;4937637;29;20421;-73
2023/08/15 11:15:44;;;;;;;5.17;4.77;;;32.20;1.00;;;;;;4937860;29;20824;-74
2023/08/15 11:18:10;;;;;;;5.40;5.00;;;32.20;1.00;;;;;;4952658;28;20437;-72
2023/08/15 11:20:36;;;;;;;4.90;4.50;;;32.10;1.00;;;;;;4938026;29;20418;-73
2023/08/15 11:23:02;;;;;;;4.57;4.27;;;31.80;1.00;;;;;;4938035;29;20975;-73
2023/08/15 11:25:28;;;;;;;5.27;4.87;;;31.80;1.00;;;;;;4937617;29;20222;-72
2023/08/15 11:27:53;;;;;;;5.67;5.17;;;31.70;1.00;;;;;;4937499;29;20223;-72
2023/08/15 11:30:20;;;;;;;4.80;4.30;;;31.60;1.00;;;;;;4937768;29;20185;-74
2023/08/15 11:32:46;;;;;;;4.73;4.43;;;31.30;1.00;;;;;;4937328;29;20194;-72
2023/08/15 11:35:12;;;;;;;5.07;4.70;;;31.30;1.00;;;;;;4937912;29;20452;-72
2023/08/15 11:37:38;;;;;;;7.17;4.60;;;31.00;1.00;;;;;;4952424;29;20434;-71
2023/08/15 11:40:04;;;;;;;10.53;5.20;;;31.20;1.00;;;;;;4938576;29;20443;-73
2023/08/15 11:42:32;;;;;;;5.33;4.97;;;31.30;1.00;;;;;;4937531;29;20182;-73
2023/08/15 11:45:18;;;;;;;5.33;4.93;;;31.10;1.00;;;;;;4937833;29;20861;-73
2023/08/15 11:48:02;;;;;;;4.53;4.10;;;31.30;1.00;;;;;;4937768;29;20979;-73
2023/08/15 11:50:30;;;;;;;5.70;5.20;;;31.40;1.00;;;;;;4937667;29;20454;-73
2023/08/15 11:52:56;;;;;;;5.60;5.20;;;31.50;1.00;;;;;;4937169;29;20418;-73
2023/08/15 11:55:23;;;;;;;4.90;4.40;;;31.40;1.00;;;;;;4937515;29;20465;-73
2023/08/15 11:57:50;;;;;;;4.97;4.57;;;31.10;1.00;;;;;;4937035;29;20928;-72
2023/08/15 12:00:18;;;;;;;4.63;4.33;;;31.00;1.00;;;;;;4937521;29;20473;-73
2023/08/15 12:02:45;;;;;;;5.00;4.70;;;30.80;1.00;;;;;;4951804;29;20772;-73
2023/08/15 12:05:16;;;;;;;4.70;4.40;;;30.80;1.00;;;;;;4937316;29;20811;-73
2023/08/15 12:07:42;;;;;;;4.73;4.30;;;30.80;1.00;;;;;;4935944;29;20462;-73
2023/08/15 12:10:09;;;;;;;5.40;5.00;;;30.60;1.00;;;;;;4933701;29;20446;-73
2023/08/15 12:12:46;;;;;;;7.53;5.17;;;30.50;1.00;;;;;;4937447;29;20850;-73
2023/08/15 12:15:14;;;;;;;5.13;4.73;;;30.60;1.00;;;;;;4940464;29;20504;-71
2023/08/15 12:17:40;;;;;;;5.13;4.73;;;30.60;1.00;;;;;;4921660;29;20526;-70
2023/08/15 12:20:09;;;;;;;5.73;5.33;;;30.80;1.00;;;;;;4918871;29;20575;-70
2023/08/15 12:22:36;;;;;;;4.50;4.20;;;30.90;1.00;;;;;;4918429;29;20214;-70
2023/08/15 12:25:01;;;;;;;10.33;5.47;;;31.10;1.00;;;;;;4918753;29;20522;-70
2023/08/15 12:27:27;;;;;;;4.50;4.20;;;31.00;1.00;;;;;;4931091;29;20470;-70
2023/08/15 12:29:53;;;;;;;4.73;4.27;;;31.00;1.00;;;;;;4918691;29;20665;-69
2023/08/15 12:32:19;;;;;;;5.10;4.70;;;31.00;1.00;;;;;;4917911;29;20280;-70
2023/08/15 12:34:45;;;;;;;5.00;4.60;;;31.00;1.00;;;;;;4917812;29;20274;-70
2023/08/15 12:37:11;;;;;;;5.43;4.93;;;30.90;1.00;;;;;;4918133;29;20451;-70
2023/08/15 12:39:36;;;;;;;4.90;4.50;;;31.10;1.00;;;;;;4917947;29;20290;-70
2023/08/15 12:42:02;;;;;;;4.70;4.30;;;31.10;1.00;;;;;;4929388;29;20186;-71
2023/08/15 12:44:31;;;;;;;6.40;5.50;;;30.80;1.00;;;;;;4937270;29;20704;-70
2023/08/15 12:46:56;;;;;;;4.70;4.40;;;30.80;1.00;;;;;;4951694;28;20207;-70
2023/08/15 12:49:22;;;;;;;5.03;4.60;;;30.90;1.00;;;;;;4937031;29;20418;-69